Fruit Heights, Utah
Current Conditions -  °F | °C
As of 10:58 AM on Sunday 23 Nov 2014 (Local Time) from KHIF Reporting Station
Clear Clear  
Wind Chill: 26°   Ceiling: Unl
Heat Index: 35°   Visibility: 10mi
Dew Point: 26°   Wind: 13mph
Humidity: 71%   Direction: 290°WNW
Pressure: 30.22"   Gusts: NA
Location:  41.0365°N, 111.927°W
Report Text: KHIF 231758Z AUTO 29011KT 10SM CLR 01/M03 A3022 RMK AO2 SLP239 60000 T00141033 10014 21013 52021
Loading
Personal Weather Stations






























Interactive Weather Map New forecast layout! Learn more

10-Day Weather Forecast

Advertisements
Track Severe Weather on mobile